sensor_id;sensor_type;location;lat;lon;timestamp;P1;durP1;ratioP1;P2;durP2;ratioP2
26780;SDS011;14366;49.184;8.054;2023-07-20T00:04:39;3.25;;;2.20;;
26780;SDS011;14366;49.184;8.054;2023-07-20T00:15:14;4.10;;;2.05;;
26780;SDS011;14366;49.184;8.054;2023-07-20T00:20:48;4.30;;;2.00;;
26780;SDS011;14366;49.184;8.054;2023-07-20T00:31:24;3.50;;;1.80;;
26780;SDS011;14366;49.184;8.054;2023-07-20T00:36:46;3.00;;;2.00;;
26780;SDS011;14366;49.184;8.054;2023-07-20T00:42:17;4.10;;;2.20;;
26780;SDS011;14366;49.184;8.054;2023-07-20T00:47:37;4.37;;;2.10;;
26780;SDS011;14366;49.184;8.054;2023-07-20T00:53:14;3.92;;;1.90;;
26780;SDS011;14366;49.184;8.054;2023-07-20T00:58:48;2.53;;;1.92;;
26780;SDS011;14366;49.184;8.054;2023-07-20T01:04:23;3.87;;;1.90;;
26780;SDS011;14366;49.184;8.054;2023-07-20T01:09:59;2.55;;;2.03;;
26780;SDS011;14366;49.184;8.054;2023-07-20T01:15:29;3.08;;;2.17;;
26780;SDS011;14366;49.184;8.054;2023-07-20T01:20:46;3.03;;;2.30;;
26780;SDS011;14366;49.184;8.054;2023-07-20T01:26:27;6.53;;;2.30;;
26780;SDS011;14366;49.184;8.054;2023-07-20T01:32:00;3.20;;;2.25;;
26780;SDS011;14366;49.184;8.054;2023-07-20T01:37:31;2.78;;;2.10;;
26780;SDS011;14366;49.184;8.054;2023-07-20T01:43:03;3.72;;;2.33;;
26780;SDS011;14366;49.184;8.054;2023-07-20T01:48:23;2.30;;;1.90;;
26780;SDS011;14366;49.184;8.054;2023-07-20T01:53:53;3.43;;;2.00;;
26780;SDS011;14366;49.184;8.054;2023-07-20T01:59:10;2.87;;;1.90;;
26780;SDS011;14366;49.184;8.054;2023-07-20T02:04:43;3.08;;;1.87;;
26780;SDS011;14366;49.184;8.054;2023-07-20T02:10:13;3.45;;;1.90;;
26780;SDS011;14366;49.184;8.054;2023-07-20T02:15:45;3.65;;;2.37;;
26780;SDS011;14366;49.184;8.054;2023-07-20T02:21:21;3.30;;;2.10;;
26780;SDS011;14366;49.184;8.054;2023-07-20T02:26:53;3.25;;;2.00;;
26780;SDS011;14366;49.184;8.054;2023-07-20T02:32:25;4.20;;;2.05;;
26780;SDS011;14366;49.184;8.054;2023-07-20T02:37:46;4.00;;;1.90;;
26780;SDS011;14366;49.184;8.054;2023-07-20T02:43:18;2.90;;;2.17;;
26780;SDS011;14366;49.184;8.054;2023-07-20T02:48:35;3.10;;;2.10;;
26780;SDS011;14366;49.184;8.054;2023-07-20T02:58:58;4.07;;;2.42;;
26780;SDS011;14366;49.184;8.054;2023-07-20T03:04:33;3.02;;;2.16;;
26780;SDS011;14366;49.184;8.054;2023-07-20T03:10:08;3.10;;;2.10;;
26780;SDS011;14366;49.184;8.054;2023-07-20T03:15:42;3.20;;;2.00;;
26780;SDS011;14366;49.184;8.054;2023-07-20T03:21:17;3.30;;;2.20;;
26780;SDS011;14366;49.184;8.054;2023-07-20T03:31:57;6.80;;;2.30;;
26780;SDS011;14366;49.184;8.054;2023-07-20T03:37:32;3.47;;;2.13;;
26780;SDS011;14366;49.184;8.054;2023-07-20T03:43:04;4.50;;;2.20;;
26780;SDS011;14366;49.184;8.054;2023-07-20T03:48:40;5.40;;;2.40;;
26780;SDS011;14366;49.184;8.054;2023-07-20T03:54:15;5.03;;;2.40;;
26780;SDS011;14366;49.184;8.054;2023-07-20T03:59:36;3.33;;;2.33;;
26780;SDS011;14366;49.184;8.054;2023-07-20T04:10:15;4.67;;;2.17;;
26780;SDS011;14366;49.184;8.054;2023-07-20T04:15:50;4.57;;;2.03;;
26780;SDS011;14366;49.184;8.054;2023-07-20T04:21:07;3.93;;;2.37;;
26780;SDS011;14366;49.184;8.054;2023-07-20T04:26:43;4.00;;;2.40;;
26780;SDS011;14366;49.184;8.054;2023-07-20T04:37:23;3.90;;;2.20;;
26780;SDS011;14366;49.184;8.054;2023-07-20T04:48:05;3.80;;;2.30;;
26780;SDS011;14366;49.184;8.054;2023-07-20T04:53:39;4.73;;;2.60;;
26780;SDS011;14366;49.184;8.054;2023-07-20T05:04:19;5.24;;;2.40;;
26780;SDS011;14366;49.184;8.054;2023-07-20T05:14:59;3.40;;;2.40;;
26780;SDS011;14366;49.184;8.054;2023-07-20T05:25:22;6.26;;;2.68;;
26780;SDS011;14366;49.184;8.054;2023-07-20T05:30:57;4.22;;;2.70;;
26780;SDS011;14366;49.184;8.054;2023-07-20T05:36:18;5.56;;;2.46;;
26780;SDS011;14366;49.184;8.054;2023-07-20T05:46:43;4.00;;;2.53;;
26780;SDS011;14366;49.184;8.054;2023-07-20T05:52:18;4.95;;;2.40;;
26780;SDS011;14366;49.184;8.054;2023-07-20T05:57:36;3.87;;;2.30;;
26780;SDS011;14366;49.184;8.054;2023-07-20T06:03:10;4.60;;;2.40;;
26780;SDS011;14366;49.184;8.054;2023-07-20T06:08:44;5.82;;;2.35;;
26780;SDS011;14366;49.184;8.054;2023-07-20T06:19:08;6.87;;;2.40;;
26780;SDS011;14366;49.184;8.054;2023-07-20T06:24:36;4.40;;;2.37;;
26780;SDS011;14366;49.184;8.054;2023-07-20T06:29:53;4.03;;;2.37;;
26780;SDS011;14366;49.184;8.054;2023-07-20T06:35:27;4.55;;;2.35;;
26780;SDS011;14366;49.184;8.054;2023-07-20T06:40:56;4.00;;;2.25;;
26780;SDS011;14366;49.184;8.054;2023-07-20T06:46:31;3.95;;;2.20;;
26780;SDS011;14366;49.184;8.054;2023-07-20T06:51:50;3.33;;;1.97;;
26780;SDS011;14366;49.184;8.054;2023-07-20T06:57:21;7.68;;;2.30;;
26780;SDS011;14366;49.184;8.054;2023-07-20T07:02:37;4.30;;;2.03;;
26780;SDS011;14366;49.184;8.054;2023-07-20T07:08:11;3.22;;;2.03;;
26780;SDS011;14366;49.184;8.054;2023-07-20T07:18:44;4.52;;;2.12;;
26780;SDS011;14366;49.184;8.054;2023-07-20T07:29:22;5.60;;;2.15;;
26780;SDS011;14366;49.184;8.054;2023-07-20T07:34:56;5.78;;;2.20;;
26780;SDS011;14366;49.184;8.054;2023-07-20T07:40:15;3.85;;;2.30;;
26780;SDS011;14366;49.184;8.054;2023-07-20T07:45:35;4.62;;;1.83;;
26780;SDS011;14366;49.184;8.054;2023-07-20T07:51:09;3.10;;;1.98;;
26780;SDS011;14366;49.184;8.054;2023-07-20T07:56:26;3.05;;;2.10;;
26780;SDS011;14366;49.184;8.054;2023-07-20T08:06:50;4.55;;;2.10;;
26780;SDS011;14366;49.184;8.054;2023-07-20T08:17:25;3.10;;;1.80;;
26780;SDS011;14366;49.184;8.054;2023-07-20T08:28:06;3.58;;;2.30;;
26780;SDS011;14366;49.184;8.054;2023-07-20T08:38:42;2.80;;;2.00;;
26780;SDS011;14366;49.184;8.054;2023-07-20T08:49:04;3.20;;;1.80;;
26780;SDS011;14366;49.184;8.054;2023-07-20T08:54:39;2.50;;;1.70;;
26780;SDS011;14366;49.184;8.054;2023-07-20T09:00:11;5.00;;;1.97;;
26780;SDS011;14366;49.184;8.054;2023-07-20T09:10:48;2.50;;;1.80;;
26780;SDS011;14366;49.184;8.054;2023-07-20T09:16:21;3.97;;;2.13;;
26780;SDS011;14366;49.184;8.054;2023-07-20T09:21:56;2.87;;;1.93;;
26780;SDS011;14366;49.184;8.054;2023-07-20T09:27:14;3.60;;;1.54;;
26780;SDS011;14366;49.184;8.054;2023-07-20T09:32:46;3.67;;;1.87;;
26780;SDS011;14366;49.184;8.054;2023-07-20T09:38:21;2.85;;;1.70;;
26780;SDS011;14366;49.184;8.054;2023-07-20T09:43:54;3.33;;;1.92;;
26780;SDS011;14366;49.184;8.054;2023-07-20T09:54:44;2.20;;;1.60;;
26780;SDS011;14366;49.184;8.054;2023-07-20T10:05:36;2.74;;;1.78;;
26780;SDS011;14366;49.184;8.054;2023-07-20T10:11:07;3.13;;;1.80;;
26780;SDS011;14366;49.184;8.054;2023-07-20T10:16:42;2.65;;;1.70;;
26780;SDS011;14366;49.184;8.054;2023-07-20T10:22:19;2.65;;;1.60;;
26780;SDS011;14366;49.184;8.054;2023-07-20T10:27:51;2.30;;;1.75;;
26780;SDS011;14366;49.184;8.054;2023-07-20T10:33:23;3.28;;;1.68;;
26780;SDS011;14366;49.184;8.054;2023-07-20T10:44:01;3.04;;;2.00;;
26780;SDS011;14366;49.184;8.054;2023-07-20T10:54:46;2.10;;;1.50;;
26780;SDS011;14366;49.184;8.054;2023-07-20T11:00:23;1.87;;;1.67;;
26780;SDS011;14366;49.184;8.054;2023-07-20T11:05:53;3.53;;;1.63;;
26780;SDS011;14366;49.184;8.054;2023-07-20T11:11:26;2.20;;;1.50;;
26780;SDS011;14366;49.184;8.054;2023-07-20T11:22:16;2.66;;;1.70;;
26780;SDS011;14366;49.184;8.054;2023-07-20T11:27:48;3.00;;;1.70;;
26780;SDS011;14366;49.184;8.054;2023-07-20T11:33:08;2.43;;;1.40;;
26780;SDS011;14366;49.184;8.054;2023-07-20T11:38:45;1.80;;;1.40;;
26780;SDS011;14366;49.184;8.054;2023-07-20T11:44:17;3.37;;;1.27;;
26780;SDS011;14366;49.184;8.054;2023-07-20T11:49:52;4.50;;;1.55;;
26780;SDS011;14366;49.184;8.054;2023-07-20T11:55:13;2.75;;;1.65;;
26780;SDS011;14366;49.184;8.054;2023-07-20T12:00:45;2.55;;;1.50;;
26780;SDS011;14366;49.184;8.054;2023-07-20T12:06:22;1.50;;;1.20;;
26780;SDS011;14366;49.184;8.054;2023-07-20T12:11:55;2.10;;;1.32;;
26780;SDS011;14366;49.184;8.054;2023-07-20T12:22:30;3.67;;;1.52;;
26780;SDS011;14366;49.184;8.054;2023-07-20T12:27:52;2.15;;;1.50;;
26780;SDS011;14366;49.184;8.054;2023-07-20T12:33:23;2.30;;;1.50;;
26780;SDS011;14366;49.184;8.054;2023-07-20T12:38:55;2.60;;;1.50;;
26780;SDS011;14366;49.184;8.054;2023-07-20T12:44:16;2.65;;;1.40;;
26780;SDS011;14366;49.184;8.054;2023-07-20T12:55:15;2.10;;;1.70;;
26780;SDS011;14366;49.184;8.054;2023-07-20T13:00:34;2.78;;;1.48;;
26780;SDS011;14366;49.184;8.054;2023-07-20T13:06:05;1.95;;;1.55;;
26780;SDS011;14366;49.184;8.054;2023-07-20T13:11:37;2.30;;;1.50;;
26780;SDS011;14366;49.184;8.054;2023-07-20T13:17:11;2.64;;;1.52;;
26780;SDS011;14366;49.184;8.054;2023-07-20T13:22:41;2.35;;;1.40;;
26780;SDS011;14366;49.184;8.054;2023-07-20T13:28:01;1.70;;;1.60;;
26780;SDS011;14366;49.184;8.054;2023-07-20T13:33:19;3.15;;;1.80;;
26780;SDS011;14366;49.184;8.054;2023-07-20T13:38:53;2.08;;;1.60;;
26780;SDS011;14366;49.184;8.054;2023-07-20T13:44:10;7.22;;;1.77;;
26780;SDS011;14366;49.184;8.054;2023-07-20T13:49:32;2.83;;;1.60;;
26780;SDS011;14366;49.184;8.054;2023-07-20T13:55:07;2.00;;;1.50;;
26780;SDS011;14366;49.184;8.054;2023-07-20T14:00:27;2.15;;;1.70;;
26780;SDS011;14366;49.184;8.054;2023-07-20T14:05:46;2.70;;;1.73;;
26780;SDS011;14366;49.184;8.054;2023-07-20T14:11:17;2.40;;;1.70;;
26780;SDS011;14366;49.184;8.054;2023-07-20T14:16:49;2.20;;;1.50;;
26780;SDS011;14366;49.184;8.054;2023-07-20T14:22:08;2.33;;;1.42;;
26780;SDS011;14366;49.184;8.054;2023-07-20T14:27:39;2.03;;;1.80;;
26780;SDS011;14366;49.184;8.054;2023-07-20T14:32:56;2.92;;;1.48;;
26780;SDS011;14366;49.184;8.054;2023-07-20T14:38:30;2.30;;;1.45;;
26780;SDS011;14366;49.184;8.054;2023-07-20T14:44:05;2.65;;;1.95;;
26780;SDS011;14366;49.184;8.054;2023-07-20T14:49:21;3.00;;;1.70;;
26780;SDS011;14366;49.184;8.054;2023-07-20T14:54:55;2.03;;;1.70;;
26780;SDS011;14366;49.184;8.054;2023-07-20T15:00:27;3.62;;;1.80;;
26780;SDS011;14366;49.184;8.054;2023-07-20T15:05:44;1.90;;;1.50;;
26780;SDS011;14366;49.184;8.054;2023-07-20T15:11:02;2.92;;;1.85;;
26780;SDS011;14366;49.184;8.054;2023-07-20T15:21:38;2.70;;;1.50;;
26780;SDS011;14366;49.184;8.054;2023-07-20T15:27:11;2.35;;;1.77;;
26780;SDS011;14366;49.184;8.054;2023-07-20T15:32:46;3.20;;;1.50;;
26780;SDS011;14366;49.184;8.054;2023-07-20T15:38:21;3.23;;;1.70;;
26780;SDS011;14366;49.184;8.054;2023-07-20T15:43:43;3.05;;;1.75;;
26780;SDS011;14366;49.184;8.054;2023-07-20T15:49:15;2.53;;;1.70;;
26780;SDS011;14366;49.184;8.054;2023-07-20T15:54:47;3.00;;;1.70;;
26780;SDS011;14366;49.184;8.054;2023-07-20T16:00:09;2.33;;;1.53;;
26780;SDS011;14366;49.184;8.054;2023-07-20T16:05:41;2.73;;;1.50;;
26780;SDS011;14366;49.184;8.054;2023-07-20T16:11:13;1.98;;;1.60;;
26780;SDS011;14366;49.184;8.054;2023-07-20T16:16:31;2.53;;;1.73;;
26780;SDS011;14366;49.184;8.054;2023-07-20T16:22:03;2.60;;;1.70;;
26780;SDS011;14366;49.184;8.054;2023-07-20T16:27:35;2.00;;;1.55;;
26780;SDS011;14366;49.184;8.054;2023-07-20T16:33:05;1.76;;;1.52;;
26780;SDS011;14366;49.184;8.054;2023-07-20T16:38:52;2.95;;;1.40;;
26780;SDS011;14366;49.184;8.054;2023-07-20T16:44:24;3.60;;;1.67;;
26780;SDS011;14366;49.184;8.054;2023-07-20T16:49:42;3.50;;;1.60;;
26780;SDS011;14366;49.184;8.054;2023-07-20T16:55:15;5.13;;;1.63;;
26780;SDS011;14366;49.184;8.054;2023-07-20T17:00:47;2.58;;;1.60;;
26780;SDS011;14366;49.184;8.054;2023-07-20T17:06:20;2.10;;;1.60;;
26780;SDS011;14366;49.184;8.054;2023-07-20T17:11:52;2.70;;;1.70;;
26780;SDS011;14366;49.184;8.054;2023-07-20T17:17:23;1.90;;;1.50;;
26780;SDS011;14366;49.184;8.054;2023-07-20T17:22:41;2.57;;;1.73;;
26780;SDS011;14366;49.184;8.054;2023-07-20T17:33:15;3.62;;;1.55;;
26780;SDS011;14366;49.184;8.054;2023-07-20T17:38:49;1.87;;;1.67;;
26780;SDS011;14366;49.184;8.054;2023-07-20T17:44:24;2.42;;;1.70;;
26780;SDS011;14366;49.184;8.054;2023-07-20T17:49:44;2.47;;;1.60;;
26780;SDS011;14366;49.184;8.054;2023-07-20T17:55:03;2.67;;;1.60;;
26780;SDS011;14366;49.184;8.054;2023-07-20T18:00:35;1.67;;;1.50;;
26780;SDS011;14366;49.184;8.054;2023-07-20T18:06:11;2.55;;;1.50;;
26780;SDS011;14366;49.184;8.054;2023-07-20T18:11:32;1.95;;;1.65;;
26780;SDS011;14366;49.184;8.054;2023-07-20T18:17:04;2.70;;;1.52;;
26780;SDS011;14366;49.184;8.054;2023-07-20T18:22:39;4.40;;;1.80;;
26780;SDS011;14366;49.184;8.054;2023-07-20T18:28:12;2.83;;;1.60;;
26780;SDS011;14366;49.184;8.054;2023-07-20T18:33:44;3.10;;;1.50;;
26780;SDS011;14366;49.184;8.054;2023-07-20T18:44:07;4.70;;;3.60;;
26780;SDS011;14366;49.184;8.054;2023-07-20T18:49:39;3.80;;;2.30;;
26780;SDS011;14366;49.184;8.054;2023-07-20T18:55:11;3.10;;;2.07;;
26780;SDS011;14366;49.184;8.054;2023-07-20T19:00:49;2.37;;;1.85;;
26780;SDS011;14366;49.184;8.054;2023-07-20T19:11:25;3.93;;;1.73;;
26780;SDS011;14366;49.184;8.054;2023-07-20T19:21:49;2.40;;;1.65;;
26780;SDS011;14366;49.184;8.054;2023-07-20T19:32:24;2.62;;;1.80;;
26780;SDS011;14366;49.184;8.054;2023-07-20T19:42:48;2.42;;;1.70;;
26780;SDS011;14366;49.184;8.054;2023-07-20T19:53:28;3.93;;;1.73;;
26780;SDS011;14366;49.184;8.054;2023-07-20T20:03:51;2.87;;;1.80;;
26780;SDS011;14366;49.184;8.054;2023-07-20T20:14:29;5.57;;;1.97;;
26780;SDS011;14366;49.184;8.054;2023-07-20T20:25:07;3.70;;;1.80;;
26780;SDS011;14366;49.184;8.054;2023-07-20T20:35:45;3.07;;;1.60;;
26780;SDS011;14366;49.184;8.054;2023-07-20T20:41:20;3.40;;;1.80;;
26780;SDS011;14366;49.184;8.054;2023-07-20T20:46:54;2.70;;;2.00;;
26780;SDS011;14366;49.184;8.054;2023-07-20T20:52:16;3.67;;;1.70;;
26780;SDS011;14366;49.184;8.054;2023-07-20T20:57:38;2.33;;;2.03;;
26780;SDS011;14366;49.184;8.054;2023-07-20T21:03:12;3.03;;;2.08;;
26780;SDS011;14366;49.184;8.054;2023-07-20T21:08:33;2.08;;;1.67;;
26780;SDS011;14366;49.184;8.054;2023-07-20T21:13:54;3.80;;;2.03;;
26780;SDS011;14366;49.184;8.054;2023-07-20T21:19:29;3.30;;;2.05;;
26780;SDS011;14366;49.184;8.054;2023-07-20T21:25:04;5.95;;;1.80;;
26780;SDS011;14366;49.184;8.054;2023-07-20T21:30:38;4.90;;;1.60;;
26780;SDS011;14366;49.184;8.054;2023-07-20T21:36:13;2.65;;;1.85;;
26780;SDS011;14366;49.184;8.054;2023-07-20T21:41:48;3.58;;;2.00;;
26780;SDS011;14366;49.184;8.054;2023-07-20T21:47:09;3.80;;;1.83;;
26780;SDS011;14366;49.184;8.054;2023-07-20T21:52:43;2.84;;;1.92;;
26780;SDS011;14366;49.184;8.054;2023-07-20T21:58:15;2.20;;;1.85;;
26780;SDS011;14366;49.184;8.054;2023-07-20T22:08:52;2.15;;;1.85;;
26780;SDS011;14366;49.184;8.054;2023-07-20T22:14:28;1.92;;;1.73;;
26780;SDS011;14366;49.184;8.054;2023-07-20T22:20:00;2.70;;;1.70;;
26780;SDS011;14366;49.184;8.054;2023-07-20T22:25:33;2.87;;;1.80;;
26780;SDS011;14366;49.184;8.054;2023-07-20T22:31:05;5.90;;;1.90;;
26780;SDS011;14366;49.184;8.054;2023-07-20T22:36:37;5.05;;;2.20;;
26780;SDS011;14366;49.184;8.054;2023-07-20T22:41:55;4.45;;;1.90;;
26780;SDS011;14366;49.184;8.054;2023-07-20T22:47:30;3.47;;;1.90;;
26780;SDS011;14366;49.184;8.054;2023-07-20T22:52:50;2.80;;;1.80;;
26780;SDS011;14366;49.184;8.054;2023-07-20T22:58:11;2.90;;;2.00;;
26780;SDS011;14366;49.184;8.054;2023-07-20T23:03:43;4.15;;;2.10;;
26780;SDS011;14366;49.184;8.054;2023-07-20T23:08:59;2.83;;;1.85;;
26780;SDS011;14366;49.184;8.054;2023-07-20T23:14:18;3.12;;;1.85;;
26780;SDS011;14366;49.184;8.054;2023-07-20T23:19:51;3.15;;;1.90;;
26780;SDS011;14366;49.184;8.054;2023-07-20T23:25:24;2.58;;;1.77;;
26780;SDS011;14366;49.184;8.054;2023-07-20T23:30:57;3.00;;;1.90;;
26780;SDS011;14366;49.184;8.054;2023-07-20T23:36:29;2.37;;;1.80;;
26780;SDS011;14366;49.184;8.054;2023-07-20T23:41:46;2.45;;;1.77;;
26780;SDS011;14366;49.184;8.054;2023-07-20T23:47:05;2.10;;;1.75;;
26780;SDS011;14366;49.184;8.054;2023-07-20T23:52:34;2.10;;;1.90;;
26780;SDS011;14366;49.184;8.054;2023-07-20T23:58:06;2.00;;;1.80;;
